createdAt,value
2018-11-22T03:48:54.947Z,25.30
2018-11-22T03:52:04.483Z,25.30
2018-11-22T03:58:19.215Z,25.30
2018-11-22T04:04:57.066Z,25.40
2018-11-22T04:11:25.063Z,25.40
2018-11-22T04:14:31.982Z,25.40
2018-11-22T04:17:35.360Z,25.40
2018-11-22T04:20:44.447Z,25.40
2018-11-22T04:23:39.929Z,25.40
2018-11-22T04:26:35.615Z,25.30
2018-11-22T04:29:29.957Z,25.00
2018-11-22T04:32:25.827Z,24.90
2018-11-22T04:35:25.652Z,24.60
2018-11-22T04:38:21.868Z,24.70
2018-11-22T04:41:18.026Z,24.80
2018-11-22T04:44:22.497Z,24.80
2018-11-22T04:47:29.550Z,24.90
2018-11-22T04:50:53.995Z,25.00
2018-11-22T04:54:05.301Z,25.00
2018-11-22T04:57:00.120Z,25.10
2018-11-22T04:59:59.686Z,25.10
2018-11-22T05:02:56.916Z,25.10
2018-11-22T05:05:53.672Z,25.10
2018-11-22T05:08:50.248Z,25.20
2018-11-22T05:11:46.694Z,25.20
2018-11-22T05:14:46.452Z,25.20
2018-11-22T05:17:43.148Z,25.20
2018-11-22T05:30:10.903Z,25.20
2018-11-22T06:12:12.129Z,25.70
2018-11-22T06:25:53.415Z,25.70
2018-11-22T06:31:55.346Z,25.70
2018-11-22T06:35:01.708Z,25.70
2018-11-22T06:38:06.938Z,25.70
2018-11-22T06:41:16.508Z,25.80
2018-11-22T06:44:53.287Z,25.80
2018-11-22T07:04:06.261Z,25.80
2018-11-22T07:14:00.831Z,25.80
2018-11-22T07:20:25.739Z,25.80
2018-11-22T07:34:38.870Z,25.90
2018-11-22T07:44:41.121Z,25.90
2018-11-22T08:24:50.304Z,25.90
2018-11-22T08:28:04.273Z,25.90
2018-11-22T08:31:08.654Z,26.00
2018-11-22T08:34:21.252Z,25.90
2018-11-22T08:37:26.704Z,25.90
2018-11-22T08:40:41.326Z,25.90
2018-11-22T08:43:53.158Z,25.90
2018-11-22T08:47:00.452Z,25.90
2018-11-22T08:53:18.989Z,26.00
2018-11-22T09:19:46.265Z,26.00
2018-11-22T09:32:27.260Z,25.90
2018-11-22T09:35:55.984Z,25.90
2018-11-22T09:39:06.541Z,25.90
2018-11-22T09:42:29.574Z,25.90
2018-11-22T09:52:16.785Z,25.90
2018-11-22T09:58:33.798Z,25.90
2018-11-22T10:02:21.542Z,25.90
2018-11-22T10:05:49.858Z,25.90
2018-11-22T10:18:21.603Z,25.90
2018-11-22T10:21:43.714Z,25.90
2018-11-22T10:24:47.933Z,25.90
2018-11-22T10:34:14.889Z,25.90
2018-11-22T10:37:31.217Z,25.90
2018-11-22T10:43:37.691Z,25.90
2018-11-22T10:49:43.994Z,25.90
2018-11-22T10:52:47.669Z,25.90
2018-11-22T10:55:50.188Z,25.90
2018-11-22T10:58:51.845Z,25.90
2018-11-22T11:02:22.733Z,25.90
2018-11-22T11:05:31.286Z,25.80
2018-11-22T11:08:36.512Z,25.80
2018-11-22T11:11:48.069Z,25.80
2018-11-22T11:18:02.828Z,25.80
2018-11-22T11:21:22.894Z,25.80
2018-11-22T11:24:42.920Z,25.80
2018-11-22T11:34:18.187Z,25.80
2018-11-22T11:37:35.693Z,25.80
2018-11-22T11:40:38.257Z,25.80
2018-11-22T11:43:36.719Z,25.90
2018-11-22T11:46:39.408Z,25.90
2018-11-22T11:49:42.034Z,25.90
2018-11-22T11:52:38.344Z,25.90
2018-11-22T11:55:38.643Z,25.90
2018-11-22T11:58:37.113Z,25.90
2018-11-22T12:01:34.444Z,25.80
2018-11-22T12:04:33.942Z,25.80
2018-11-22T12:07:32.051Z,25.80
2018-11-22T12:10:31.610Z,25.80
2018-11-22T12:13:30.840Z,25.80
2018-11-22T12:16:31.866Z,25.70
2018-11-22T12:19:28.482Z,25.70
2018-11-22T12:22:24.698Z,25.80
2018-11-22T12:25:27.665Z,25.70
2018-11-22T12:28:23.790Z,25.70
2018-11-22T12:31:20.684Z,25.70
2018-11-22T12:34:25.982Z,25.70
2018-11-22T12:37:43.243Z,25.70
2018-11-22T12:40:38.118Z,25.70
2018-11-22T12:43:34.068Z,25.70
2018-11-22T12:46:31.240Z,25.70
2018-11-22T12:49:27.179Z,25.70
2018-11-22T12:52:23.760Z,25.70
2018-11-22T12:55:22.774Z,25.70
2018-11-22T12:58:19.407Z,25.70
2018-11-22T13:01:15.629Z,25.70
2018-11-22T13:04:11.004Z,25.70
2018-11-22T13:07:07.340Z,25.70
2018-11-22T13:10:03.199Z,25.70
2018-11-22T13:12:59.258Z,25.70
2018-11-22T13:15:57.536Z,25.70
2018-11-22T13:18:59.244Z,25.70
2018-11-22T13:21:49.903Z,25.70
2018-11-22T13:24:45.990Z,25.70
2018-11-22T13:27:41.696Z,25.70
2018-11-22T13:30:37.600Z,25.70
2018-11-22T13:33:33.206Z,25.70
2018-11-22T13:36:28.494Z,25.70
2018-11-22T13:39:23.827Z,25.70
2018-11-22T13:42:19.591Z,25.70
2018-11-22T13:45:17.759Z,25.70
2018-11-22T13:48:26.356Z,25.70
2018-11-22T13:51:22.243Z,25.70
2018-11-22T13:54:18.513Z,25.70
2018-11-22T13:57:22.762Z,25.60
2018-11-22T14:00:23.996Z,25.60
2018-11-22T14:03:28.845Z,25.60
2018-11-22T14:06:32.976Z,25.60
2018-11-22T14:09:36.569Z,25.60
2018-11-22T14:12:45.179Z,25.60
2018-11-22T14:15:46.493Z,25.50
2018-11-22T14:18:42.155Z,25.60
2018-11-22T14:21:41.561Z,25.50
2018-11-22T14:24:36.925Z,25.50
2018-11-22T14:27:32.600Z,25.50
2018-11-22T14:30:30.598Z,25.50
2018-11-22T14:33:34.250Z,25.50
2018-11-22T14:36:31.093Z,25.50
2018-11-22T14:39:27.317Z,25.50
2018-11-22T14:42:35.929Z,25.50
2018-11-22T14:45:32.796Z,25.50
2018-11-22T14:48:29.107Z,25.50
2018-11-22T14:51:31.257Z,25.50
2018-11-22T14:54:28.158Z,25.50
